sensor_id;sensor_type;location;lat;lon;timestamp;P1;durP1;ratioP1;P2;durP2;ratioP2
6348;SDS011;3207;42.648;23.406;2023-06-22T00:00:11;9.35;;;5.22;;
6348;SDS011;3207;42.648;23.406;2023-06-22T00:02:38;14.02;;;6.35;;
6348;SDS011;3207;42.648;23.406;2023-06-22T00:05:05;10.75;;;6.05;;
6348;SDS011;3207;42.648;23.406;2023-06-22T00:07:32;12.32;;;5.78;;
6348;SDS011;3207;42.648;23.406;2023-06-22T00:09:59;10.32;;;5.90;;
6348;SDS011;3207;42.648;23.406;2023-06-22T00:12:27;16.30;;;6.18;;
6348;SDS011;3207;42.648;23.406;2023-06-22T00:14:54;11.10;;;6.63;;
6348;SDS011;3207;42.648;23.406;2023-06-22T00:17:20;9.98;;;6.03;;
6348;SDS011;3207;42.648;23.406;2023-06-22T00:19:47;11.55;;;6.10;;
6348;SDS011;3207;42.648;23.406;2023-06-22T00:22:18;15.02;;;6.35;;
6348;SDS011;3207;42.648;23.406;2023-06-22T00:24:46;7.97;;;5.53;;
6348;SDS011;3207;42.648;23.406;2023-06-22T00:27:13;12.13;;;7.10;;
6348;SDS011;3207;42.648;23.406;2023-06-22T00:29:41;8.27;;;5.93;;
6348;SDS011;3207;42.648;23.406;2023-06-22T00:32:08;11.60;;;6.22;;
6348;SDS011;3207;42.648;23.406;2023-06-22T00:34:35;12.27;;;6.10;;
6348;SDS011;3207;42.648;23.406;2023-06-22T00:37:02;10.82;;;7.10;;
6348;SDS011;3207;42.648;23.406;2023-06-22T00:39:29;13.52;;;6.18;;
6348;SDS011;3207;42.648;23.406;2023-06-22T00:41:58;12.50;;;6.50;;
6348;SDS011;3207;42.648;23.406;2023-06-22T00:44:25;10.05;;;6.88;;
6348;SDS011;3207;42.648;23.406;2023-06-22T00:46:53;8.50;;;7.20;;
6348;SDS011;3207;42.648;23.406;2023-06-22T00:49:20;11.38;;;6.95;;
6348;SDS011;3207;42.648;23.406;2023-06-22T00:51:47;13.38;;;7.35;;
6348;SDS011;3207;42.648;23.406;2023-06-22T00:54:14;11.50;;;7.28;;
6348;SDS011;3207;42.648;23.406;2023-06-22T00:56:41;13.90;;;6.90;;
6348;SDS011;3207;42.648;23.406;2023-06-22T00:59:08;13.90;;;7.25;;
6348;SDS011;3207;42.648;23.406;2023-06-22T01:01:37;11.68;;;7.15;;
6348;SDS011;3207;42.648;23.406;2023-06-22T01:04:07;12.55;;;7.07;;
6348;SDS011;3207;42.648;23.406;2023-06-22T01:06:35;10.13;;;7.00;;
6348;SDS011;3207;42.648;23.406;2023-06-22T01:09:08;11.75;;;7.22;;
6348;SDS011;3207;42.648;23.406;2023-06-22T01:11:41;9.73;;;6.90;;
6348;SDS011;3207;42.648;23.406;2023-06-22T01:14:12;12.50;;;7.97;;
6348;SDS011;3207;42.648;23.406;2023-06-22T01:16:42;9.88;;;6.88;;
6348;SDS011;3207;42.648;23.406;2023-06-22T01:19:17;8.40;;;6.22;;
6348;SDS011;3207;42.648;23.406;2023-06-22T01:21:55;13.63;;;7.38;;
6348;SDS011;3207;42.648;23.406;2023-06-22T01:24:26;12.43;;;6.35;;
6348;SDS011;3207;42.648;23.406;2023-06-22T01:27:05;10.82;;;6.80;;
6348;SDS011;3207;42.648;23.406;2023-06-22T01:29:42;11.88;;;6.47;;
6348;SDS011;3207;42.648;23.406;2023-06-22T01:32:10;8.93;;;6.38;;
6348;SDS011;3207;42.648;23.406;2023-06-22T01:34:38;11.98;;;7.25;;
6348;SDS011;3207;42.648;23.406;2023-06-22T01:37:06;7.00;;;6.22;;
6348;SDS011;3207;42.648;23.406;2023-06-22T01:39:34;10.60;;;6.63;;
6348;SDS011;3207;42.648;23.406;2023-06-22T01:42:08;10.48;;;6.78;;
6348;SDS011;3207;42.648;23.406;2023-06-22T01:44:35;16.38;;;6.72;;
6348;SDS011;3207;42.648;23.406;2023-06-22T01:47:05;15.40;;;6.75;;
6348;SDS011;3207;42.648;23.406;2023-06-22T01:49:33;11.77;;;6.75;;
6348;SDS011;3207;42.648;23.406;2023-06-22T01:52:00;12.13;;;6.68;;
6348;SDS011;3207;42.648;23.406;2023-06-22T01:54:27;9.45;;;5.65;;
6348;SDS011;3207;42.648;23.406;2023-06-22T01:56:54;11.98;;;6.20;;
6348;SDS011;3207;42.648;23.406;2023-06-22T01:59:23;12.35;;;6.40;;
6348;SDS011;3207;42.648;23.406;2023-06-22T02:01:57;10.68;;;7.00;;
6348;SDS011;3207;42.648;23.406;2023-06-22T02:04:30;12.32;;;6.30;;
6348;SDS011;3207;42.648;23.406;2023-06-22T02:07:01;13.68;;;6.28;;
6348;SDS011;3207;42.648;23.406;2023-06-22T02:09:32;12.98;;;6.28;;
6348;SDS011;3207;42.648;23.406;2023-06-22T02:12:02;11.48;;;6.47;;
6348;SDS011;3207;42.648;23.406;2023-06-22T02:14:31;12.18;;;6.57;;
6348;SDS011;3207;42.648;23.406;2023-06-22T02:16:59;10.35;;;6.70;;
6348;SDS011;3207;42.648;23.406;2023-06-22T02:19:26;9.75;;;6.60;;
6348;SDS011;3207;42.648;23.406;2023-06-22T02:21:59;11.15;;;6.97;;
6348;SDS011;3207;42.648;23.406;2023-06-22T02:24:26;13.10;;;6.75;;
6348;SDS011;3207;42.648;23.406;2023-06-22T02:26:56;8.70;;;5.95;;
6348;SDS011;3207;42.648;23.406;2023-06-22T02:29:23;11.95;;;7.97;;
6348;SDS011;3207;42.648;23.406;2023-06-22T02:31:50;10.38;;;7.15;;
6348;SDS011;3207;42.648;23.406;2023-06-22T02:34:17;10.55;;;7.20;;
6348;SDS011;3207;42.648;23.406;2023-06-22T02:36:45;9.43;;;6.88;;
6348;SDS011;3207;42.648;23.406;2023-06-22T02:39:18;15.55;;;8.50;;
6348;SDS011;3207;42.648;23.406;2023-06-22T02:41:47;11.70;;;7.15;;
6348;SDS011;3207;42.648;23.406;2023-06-22T02:44:14;15.30;;;7.93;;
6348;SDS011;3207;42.648;23.406;2023-06-22T02:46:41;10.43;;;7.22;;
6348;SDS011;3207;42.648;23.406;2023-06-22T02:49:08;11.18;;;7.63;;
6348;SDS011;3207;42.648;23.406;2023-06-22T02:51:37;11.43;;;7.00;;
6348;SDS011;3207;42.648;23.406;2023-06-22T02:54:04;15.05;;;7.60;;
6348;SDS011;3207;42.648;23.406;2023-06-22T02:56:33;9.85;;;6.85;;
6348;SDS011;3207;42.648;23.406;2023-06-22T02:59:01;9.25;;;7.13;;
6348;SDS011;3207;42.648;23.406;2023-06-22T03:01:28;10.02;;;6.88;;
6348;SDS011;3207;42.648;23.406;2023-06-22T03:03:55;14.80;;;7.93;;
6348;SDS011;3207;42.648;23.406;2023-06-22T03:06:22;13.32;;;7.18;;
6348;SDS011;3207;42.648;23.406;2023-06-22T03:08:54;11.95;;;7.10;;
6348;SDS011;3207;42.648;23.406;2023-06-22T03:11:23;13.27;;;6.82;;
6348;SDS011;3207;42.648;23.406;2023-06-22T03:13:52;11.43;;;6.97;;
6348;SDS011;3207;42.648;23.406;2023-06-22T03:16:19;13.60;;;7.47;;
6348;SDS011;3207;42.648;23.406;2023-06-22T03:18:46;16.13;;;7.65;;
6348;SDS011;3207;42.648;23.406;2023-06-22T03:21:12;11.77;;;6.53;;
6348;SDS011;3207;42.648;23.406;2023-06-22T03:23:40;12.02;;;7.32;;
6348;SDS011;3207;42.648;23.406;2023-06-22T03:26:08;12.27;;;7.25;;
6348;SDS011;3207;42.648;23.406;2023-06-22T03:28:35;11.18;;;7.15;;
6348;SDS011;3207;42.648;23.406;2023-06-22T03:31:03;12.90;;;7.55;;
6348;SDS011;3207;42.648;23.406;2023-06-22T03:33:31;10.80;;;7.32;;
6348;SDS011;3207;42.648;23.406;2023-06-22T03:35:58;10.20;;;7.07;;
6348;SDS011;3207;42.648;23.406;2023-06-22T03:38:25;10.77;;;7.57;;
6348;SDS011;3207;42.648;23.406;2023-06-22T03:40:52;11.85;;;7.25;;
6348;SDS011;3207;42.648;23.406;2023-06-22T03:43:18;11.27;;;7.55;;
6348;SDS011;3207;42.648;23.406;2023-06-22T03:45:45;9.75;;;7.65;;
6348;SDS011;3207;42.648;23.406;2023-06-22T03:48:13;11.30;;;8.00;;
6348;SDS011;3207;42.648;23.406;2023-06-22T03:50:40;11.05;;;6.80;;
6348;SDS011;3207;42.648;23.406;2023-06-22T03:53:09;20.90;;;7.93;;
6348;SDS011;3207;42.648;23.406;2023-06-22T03:55:36;14.98;;;8.15;;
6348;SDS011;3207;42.648;23.406;2023-06-22T03:58:07;15.23;;;8.65;;
6348;SDS011;3207;42.648;23.406;2023-06-22T04:00:34;16.95;;;7.60;;
6348;SDS011;3207;42.648;23.406;2023-06-22T04:03:01;14.90;;;8.02;;
6348;SDS011;3207;42.648;23.406;2023-06-22T04:05:30;12.13;;;7.90;;
6348;SDS011;3207;42.648;23.406;2023-06-22T04:07:56;12.93;;;6.88;;
6348;SDS011;3207;42.648;23.406;2023-06-22T04:10:23;15.90;;;7.78;;
6348;SDS011;3207;42.648;23.406;2023-06-22T04:12:50;10.65;;;6.53;;
6348;SDS011;3207;42.648;23.406;2023-06-22T04:15:17;14.07;;;6.80;;
6348;SDS011;3207;42.648;23.406;2023-06-22T04:17:44;12.63;;;6.95;;
6348;SDS011;3207;42.648;23.406;2023-06-22T04:20:11;12.95;;;8.30;;
6348;SDS011;3207;42.648;23.406;2023-06-22T04:22:39;13.43;;;7.47;;
6348;SDS011;3207;42.648;23.406;2023-06-22T04:25:06;11.35;;;7.82;;
6348;SDS011;3207;42.648;23.406;2023-06-22T04:27:33;10.25;;;7.03;;
6348;SDS011;3207;42.648;23.406;2023-06-22T04:30:02;12.73;;;7.50;;
6348;SDS011;3207;42.648;23.406;2023-06-22T04:32:32;14.52;;;7.60;;
6348;SDS011;3207;42.648;23.406;2023-06-22T04:34:58;12.98;;;7.18;;
6348;SDS011;3207;42.648;23.406;2023-06-22T04:37:26;11.00;;;7.70;;
6348;SDS011;3207;42.648;23.406;2023-06-22T04:39:54;14.63;;;6.78;;
6348;SDS011;3207;42.648;23.406;2023-06-22T04:42:21;17.13;;;7.40;;
6348;SDS011;3207;42.648;23.406;2023-06-22T04:44:48;9.68;;;6.97;;
6348;SDS011;3207;42.648;23.406;2023-06-22T04:47:15;11.98;;;7.18;;
6348;SDS011;3207;42.648;23.406;2023-06-22T04:49:42;14.95;;;8.02;;
6348;SDS011;3207;42.648;23.406;2023-06-22T04:52:09;8.27;;;7.28;;
6348;SDS011;3207;42.648;23.406;2023-06-22T04:54:37;15.70;;;7.78;;
6348;SDS011;3207;42.648;23.406;2023-06-22T04:57:13;10.82;;;7.35;;
6348;SDS011;3207;42.648;23.406;2023-06-22T04:59:41;9.07;;;6.55;;
6348;SDS011;3207;42.648;23.406;2023-06-22T05:02:09;12.43;;;7.82;;
6348;SDS011;3207;42.648;23.406;2023-06-22T05:04:36;13.27;;;8.00;;
6348;SDS011;3207;42.648;23.406;2023-06-22T05:07:03;13.38;;;6.72;;
6348;SDS011;3207;42.648;23.406;2023-06-22T05:09:31;13.63;;;6.90;;
6348;SDS011;3207;42.648;23.406;2023-06-22T05:11:58;15.65;;;7.43;;
6348;SDS011;3207;42.648;23.406;2023-06-22T05:14:28;14.15;;;7.28;;
6348;SDS011;3207;42.648;23.406;2023-06-22T05:16:55;17.23;;;7.50;;
6348;SDS011;3207;42.648;23.406;2023-06-22T05:19:24;11.30;;;7.13;;
6348;SDS011;3207;42.648;23.406;2023-06-22T05:21:58;10.02;;;7.07;;
6348;SDS011;3207;42.648;23.406;2023-06-22T05:24:25;10.90;;;7.05;;
6348;SDS011;3207;42.648;23.406;2023-06-22T05:26:52;14.77;;;7.75;;
6348;SDS011;3207;42.648;23.406;2023-06-22T05:29:19;14.10;;;8.13;;
6348;SDS011;3207;42.648;23.406;2023-06-22T05:31:48;12.55;;;7.78;;
6348;SDS011;3207;42.648;23.406;2023-06-22T05:34:15;12.82;;;6.78;;
6348;SDS011;3207;42.648;23.406;2023-06-22T05:36:42;12.70;;;7.13;;
6348;SDS011;3207;42.648;23.406;2023-06-22T05:39:12;16.60;;;7.82;;
6348;SDS011;3207;42.648;23.406;2023-06-22T05:41:39;13.02;;;7.32;;
6348;SDS011;3207;42.648;23.406;2023-06-22T05:44:06;13.43;;;7.32;;
6348;SDS011;3207;42.648;23.406;2023-06-22T05:46:33;12.35;;;7.68;;
6348;SDS011;3207;42.648;23.406;2023-06-22T05:49:01;14.02;;;7.90;;
6348;SDS011;3207;42.648;23.406;2023-06-22T05:51:28;13.88;;;7.45;;
6348;SDS011;3207;42.648;23.406;2023-06-22T05:53:55;12.13;;;7.07;;
6348;SDS011;3207;42.648;23.406;2023-06-22T05:56:22;13.20;;;7.47;;
6348;SDS011;3207;42.648;23.406;2023-06-22T05:58:49;10.82;;;7.43;;
6348;SDS011;3207;42.648;23.406;2023-06-22T06:01:16;20.15;;;7.93;;
6348;SDS011;3207;42.648;23.406;2023-06-22T06:03:43;14.63;;;7.45;;
6348;SDS011;3207;42.648;23.406;2023-06-22T06:06:11;12.35;;;6.38;;
6348;SDS011;3207;42.648;23.406;2023-06-22T06:08:39;13.93;;;8.07;;
6348;SDS011;3207;42.648;23.406;2023-06-22T06:11:07;11.20;;;7.43;;
6348;SDS011;3207;42.648;23.406;2023-06-22T06:13:33;17.00;;;8.15;;
6348;SDS011;3207;42.648;23.406;2023-06-22T06:16:00;12.82;;;8.32;;
6348;SDS011;3207;42.648;23.406;2023-06-22T06:18:27;12.02;;;7.15;;
6348;SDS011;3207;42.648;23.406;2023-06-22T06:20:54;15.43;;;7.60;;
6348;SDS011;3207;42.648;23.406;2023-06-22T06:23:22;13.88;;;8.43;;
6348;SDS011;3207;42.648;23.406;2023-06-22T06:25:49;13.43;;;7.75;;
6348;SDS011;3207;42.648;23.406;2023-06-22T06:28:16;14.00;;;8.43;;
6348;SDS011;3207;42.648;23.406;2023-06-22T06:30:43;16.40;;;9.18;;
6348;SDS011;3207;42.648;23.406;2023-06-22T06:33:11;14.73;;;9.20;;
6348;SDS011;3207;42.648;23.406;2023-06-22T06:35:38;12.18;;;9.27;;
6348;SDS011;3207;42.648;23.406;2023-06-22T06:38:05;16.80;;;9.95;;
6348;SDS011;3207;42.648;23.406;2023-06-22T06:40:33;11.93;;;9.25;;
6348;SDS011;3207;42.648;23.406;2023-06-22T06:43:00;19.33;;;8.98;;
6348;SDS011;3207;42.648;23.406;2023-06-22T06:45:27;13.10;;;9.35;;
6348;SDS011;3207;42.648;23.406;2023-06-22T06:47:56;23.40;;;11.40;;
6348;SDS011;3207;42.648;23.406;2023-06-22T06:50:23;16.77;;;9.93;;
6348;SDS011;3207;42.648;23.406;2023-06-22T06:52:49;14.40;;;8.90;;
6348;SDS011;3207;42.648;23.406;2023-06-22T06:55:16;17.98;;;10.40;;
6348;SDS011;3207;42.648;23.406;2023-06-22T06:57:45;15.60;;;9.50;;
6348;SDS011;3207;42.648;23.406;2023-06-22T07:00:13;13.35;;;10.07;;
6348;SDS011;3207;42.648;23.406;2023-06-22T07:02:42;17.50;;;9.68;;
6348;SDS011;3207;42.648;23.406;2023-06-22T07:05:09;13.43;;;8.93;;
6348;SDS011;3207;42.648;23.406;2023-06-22T07:07:37;22.40;;;11.30;;
6348;SDS011;3207;42.648;23.406;2023-06-22T07:10:05;13.73;;;9.35;;
6348;SDS011;3207;42.648;23.406;2023-06-22T07:12:32;16.27;;;10.05;;
6348;SDS011;3207;42.648;23.406;2023-06-22T07:15:04;23.83;;;11.10;;
6348;SDS011;3207;42.648;23.406;2023-06-22T07:17:33;14.02;;;10.20;;
6348;SDS011;3207;42.648;23.406;2023-06-22T07:20:00;20.15;;;10.35;;
6348;SDS011;3207;42.648;23.406;2023-06-22T07:22:32;15.25;;;11.02;;
6348;SDS011;3207;42.648;23.406;2023-06-22T07:24:59;22.42;;;10.32;;
6348;SDS011;3207;42.648;23.406;2023-06-22T07:27:26;21.42;;;10.95;;
6348;SDS011;3207;42.648;23.406;2023-06-22T07:29:53;18.95;;;10.38;;
6348;SDS011;3207;42.648;23.406;2023-06-22T07:32:21;16.05;;;10.70;;
6348;SDS011;3207;42.648;23.406;2023-06-22T07:34:48;20.98;;;11.02;;
6348;SDS011;3207;42.648;23.406;2023-06-22T07:37:15;24.40;;;10.63;;
6348;SDS011;3207;42.648;23.406;2023-06-22T07:39:42;13.23;;;9.85;;
6348;SDS011;3207;42.648;23.406;2023-06-22T07:42:09;15.52;;;11.00;;
6348;SDS011;3207;42.648;23.406;2023-06-22T07:44:35;16.95;;;11.43;;
6348;SDS011;3207;42.648;23.406;2023-06-22T07:47:02;17.45;;;11.32;;
6348;SDS011;3207;42.648;23.406;2023-06-22T07:49:31;15.40;;;10.93;;
6348;SDS011;3207;42.648;23.406;2023-06-22T07:51:58;14.52;;;9.82;;
6348;SDS011;3207;42.648;23.406;2023-06-22T07:54:26;21.33;;;10.82;;
6348;SDS011;3207;42.648;23.406;2023-06-22T07:56:53;17.30;;;11.10;;
6348;SDS011;3207;42.648;23.406;2023-06-22T07:59:19;17.73;;;11.57;;
6348;SDS011;3207;42.648;23.406;2023-06-22T08:01:46;21.50;;;11.23;;
6348;SDS011;3207;42.648;23.406;2023-06-22T08:04:14;17.75;;;11.82;;
6348;SDS011;3207;42.648;23.406;2023-06-22T08:06:42;13.57;;;10.30;;
6348;SDS011;3207;42.648;23.406;2023-06-22T08:09:09;11.63;;;9.90;;
6348;SDS011;3207;42.648;23.406;2023-06-22T08:11:37;15.70;;;10.95;;
6348;SDS011;3207;42.648;23.406;2023-06-22T08:14:04;23.42;;;11.95;;
6348;SDS011;3207;42.648;23.406;2023-06-22T08:16:31;14.13;;;10.27;;
6348;SDS011;3207;42.648;23.406;2023-06-22T08:18:57;13.77;;;10.18;;
6348;SDS011;3207;42.648;23.406;2023-06-22T08:21:24;20.65;;;11.57;;
6348;SDS011;3207;42.648;23.406;2023-06-22T08:23:52;19.33;;;10.88;;
6348;SDS011;3207;42.648;23.406;2023-06-22T08:26:19;21.90;;;10.85;;
6348;SDS011;3207;42.648;23.406;2023-06-22T08:28:46;16.02;;;10.77;;
6348;SDS011;3207;42.648;23.406;2023-06-22T08:31:13;18.50;;;11.93;;
6348;SDS011;3207;42.648;23.406;2023-06-22T08:33:40;15.38;;;11.18;;
6348;SDS011;3207;42.648;23.406;2023-06-22T08:36:09;19.70;;;12.13;;
6348;SDS011;3207;42.648;23.406;2023-06-22T08:38:36;17.42;;;9.60;;
6348;SDS011;3207;42.648;23.406;2023-06-22T08:41:05;13.75;;;10.38;;
6348;SDS011;3207;42.648;23.406;2023-06-22T08:43:33;19.98;;;11.30;;
6348;SDS011;3207;42.648;23.406;2023-06-22T08:45:59;12.57;;;9.15;;
6348;SDS011;3207;42.648;23.406;2023-06-22T08:48:27;15.88;;;10.38;;
6348;SDS011;3207;42.648;23.406;2023-06-22T08:50:54;13.65;;;9.35;;
6348;SDS011;3207;42.648;23.406;2023-06-22T08:53:24;17.10;;;10.50;;
6348;SDS011;3207;42.648;23.406;2023-06-22T08:55:51;14.18;;;9.10;;
6348;SDS011;3207;42.648;23.406;2023-06-22T08:58:19;15.90;;;9.63;;
6348;SDS011;3207;42.648;23.406;2023-06-22T09:00:46;11.38;;;8.65;;
6348;SDS011;3207;42.648;23.406;2023-06-22T09:03:16;15.00;;;8.63;;
6348;SDS011;3207;42.648;23.406;2023-06-22T09:05:52;13.00;;;8.75;;
6348;SDS011;3207;42.648;23.406;2023-06-22T09:08:19;13.50;;;9.88;;
6348;SDS011;3207;42.648;23.406;2023-06-22T09:10:46;18.25;;;9.55;;
6348;SDS011;3207;42.648;23.406;2023-06-22T09:13:13;10.70;;;8.52;;
6348;SDS011;3207;42.648;23.406;2023-06-22T09:15:41;10.93;;;8.90;;
6348;SDS011;3207;42.648;23.406;2023-06-22T09:18:09;14.60;;;9.25;;
6348;SDS011;3207;42.648;23.406;2023-06-22T09:20:36;16.00;;;10.57;;
6348;SDS011;3207;42.648;23.406;2023-06-22T09:23:03;14.90;;;9.75;;
6348;SDS011;3207;42.648;23.406;2023-06-22T09:25:30;15.45;;;10.93;;
6348;SDS011;3207;42.648;23.406;2023-06-22T09:27:57;12.25;;;9.23;;
6348;SDS011;3207;42.648;23.406;2023-06-22T09:30:24;15.38;;;9.43;;
6348;SDS011;3207;42.648;23.406;2023-06-22T09:32:52;12.68;;;9.23;;
6348;SDS011;3207;42.648;23.406;2023-06-22T09:35:21;11.65;;;9.23;;
6348;SDS011;3207;42.648;23.406;2023-06-22T09:37:48;13.65;;;9.98;;
6348;SDS011;3207;42.648;23.406;2023-06-22T09:40:28;13.65;;;9.77;;
6348;SDS011;3207;42.648;23.406;2023-06-22T09:49:34;10.65;;;9.63;;
6348;SDS011;3207;42.648;23.406;2023-06-22T09:55:53;14.18;;;10.20;;
6348;SDS011;3207;42.648;23.406;2023-06-22T09:58:54;12.27;;;10.00;;
6348;SDS011;3207;42.648;23.406;2023-06-22T10:03:39;11.32;;;9.98;;
6348;SDS011;3207;42.648;23.406;2023-06-22T10:33:47;12.30;;;10.57;;
6348;SDS011;3207;42.648;23.406;2023-06-22T10:36:45;16.15;;;9.82;;
6348;SDS011;3207;42.648;23.406;2023-06-22T10:42:42;12.75;;;10.82;;
6348;SDS011;3207;42.648;23.406;2023-06-22T10:45:32;22.00;;;9.90;;
6348;SDS011;3207;42.648;23.406;2023-06-22T10:48:13;15.20;;;11.02;;
6348;SDS011;3207;42.648;23.406;2023-06-22T10:50:56;11.40;;;9.40;;
6348;SDS011;3207;42.648;23.406;2023-06-22T10:53:49;12.25;;;11.18;;
6348;SDS011;3207;42.648;23.406;2023-06-22T10:56:18;14.27;;;10.00;;
6348;SDS011;3207;42.648;23.406;2023-06-22T10:58:45;11.40;;;9.68;;
6348;SDS011;3207;42.648;23.406;2023-06-22T11:01:14;18.65;;;10.32;;
6348;SDS011;3207;42.648;23.406;2023-06-22T11:03:41;16.05;;;11.63;;
6348;SDS011;3207;42.648;23.406;2023-06-22T11:06:12;13.43;;;12.02;;
6348;SDS011;3207;42.648;23.406;2023-06-22T11:08:46;11.40;;;10.07;;
6348;SDS011;3207;42.648;23.406;2023-06-22T11:11:14;13.95;;;10.38;;
6348;SDS011;3207;42.648;23.406;2023-06-22T11:13:42;12.90;;;10.73;;
6348;SDS011;3207;42.648;23.406;2023-06-22T11:16:09;11.18;;;10.10;;
6348;SDS011;3207;42.648;23.406;2023-06-22T11:18:36;18.42;;;11.02;;
6348;SDS011;3207;42.648;23.406;2023-06-22T11:21:03;11.20;;;10.05;;
6348;SDS011;3207;42.648;23.406;2023-06-22T11:23:32;11.45;;;10.35;;
6348;SDS011;3207;42.648;23.406;2023-06-22T11:25:59;21.10;;;11.82;;
6348;SDS011;3207;42.648;23.406;2023-06-22T11:28:26;11.65;;;10.68;;
6348;SDS011;3207;42.648;23.406;2023-06-22T11:30:55;11.93;;;10.70;;
6348;SDS011;3207;42.648;23.406;2023-06-22T11:33:21;13.63;;;10.65;;
6348;SDS011;3207;42.648;23.406;2023-06-22T11:35:48;18.02;;;12.27;;
6348;SDS011;3207;42.648;23.406;2023-06-22T11:38:15;11.77;;;10.77;;
6348;SDS011;3207;42.648;23.406;2023-06-22T11:40:43;13.73;;;10.98;;
6348;SDS011;3207;42.648;23.406;2023-06-22T11:43:10;14.63;;;10.88;;
6348;SDS011;3207;42.648;23.406;2023-06-22T11:45:37;18.05;;;12.80;;
6348;SDS011;3207;42.648;23.406;2023-06-22T11:48:04;13.45;;;11.95;;
6348;SDS011;3207;42.648;23.406;2023-06-22T11:50:31;12.52;;;11.23;;
6348;SDS011;3207;42.648;23.406;2023-06-22T11:53:01;14.70;;;11.05;;
6348;SDS011;3207;42.648;23.406;2023-06-22T11:55:29;13.40;;;12.05;;
6348;SDS011;3207;42.648;23.406;2023-06-22T11:57:57;14.50;;;11.00;;
6348;SDS011;3207;42.648;23.406;2023-06-22T12:00:28;12.50;;;11.20;;
6348;SDS011;3207;42.648;23.406;2023-06-22T12:02:55;14.15;;;12.32;;
6348;SDS011;3207;42.648;23.406;2023-06-22T12:05:22;17.83;;;12.57;;
6348;SDS011;3207;42.648;23.406;2023-06-22T12:07:49;18.30;;;12.35;;
6348;SDS011;3207;42.648;23.406;2023-06-22T12:10:17;21.63;;;18.40;;
6348;SDS011;3207;42.648;23.406;2023-06-22T12:12:44;36.55;;;27.25;;
6348;SDS011;3207;42.648;23.406;2023-06-22T12:15:12;14.10;;;12.73;;
6348;SDS011;3207;42.648;23.406;2023-06-22T12:17:39;17.27;;;15.48;;
6348;SDS011;3207;42.648;23.406;2023-06-22T12:20:07;18.17;;;13.93;;
6348;SDS011;3207;42.648;23.406;2023-06-22T12:22:37;15.32;;;11.77;;
6348;SDS011;3207;42.648;23.406;2023-06-22T12:25:04;12.13;;;11.00;;
6348;SDS011;3207;42.648;23.406;2023-06-22T12:27:33;17.48;;;11.98;;
6348;SDS011;3207;42.648;23.406;2023-06-22T12:30:00;15.60;;;11.50;;
6348;SDS011;3207;42.648;23.406;2023-06-22T12:32:29;12.88;;;11.45;;
6348;SDS011;3207;42.648;23.406;2023-06-22T12:34:56;14.73;;;11.00;;
6348;SDS011;3207;42.648;23.406;2023-06-22T12:37:23;15.35;;;10.63;;
6348;SDS011;3207;42.648;23.406;2023-06-22T12:39:50;12.10;;;9.55;;
6348;SDS011;3207;42.648;23.406;2023-06-22T12:42:17;16.35;;;11.02;;
6348;SDS011;3207;42.648;23.406;2023-06-22T12:44:44;12.75;;;10.32;;
6348;SDS011;3207;42.648;23.406;2023-06-22T12:47:13;12.35;;;9.80;;
6348;SDS011;3207;42.648;23.406;2023-06-22T12:49:41;12.32;;;11.05;;
6348;SDS011;3207;42.648;23.406;2023-06-22T12:52:11;12.43;;;10.45;;
6348;SDS011;3207;42.648;23.406;2023-06-22T12:54:38;15.52;;;12.02;;
6348;SDS011;3207;42.648;23.406;2023-06-22T12:57:05;12.32;;;10.93;;
6348;SDS011;3207;42.648;23.406;2023-06-22T12:59:32;14.02;;;10.77;;
6348;SDS011;3207;42.648;23.406;2023-06-22T13:01:59;18.88;;;10.10;;
6348;SDS011;3207;42.648;23.406;2023-06-22T13:04:26;15.77;;;10.50;;
6348;SDS011;3207;42.648;23.406;2023-06-22T13:06:54;13.77;;;10.57;;
6348;SDS011;3207;42.648;23.406;2023-06-22T13:09:21;14.43;;;10.98;;
6348;SDS011;3207;42.648;23.406;2023-06-22T13:11:54;15.20;;;11.50;;
6348;SDS011;3207;42.648;23.406;2023-06-22T13:14:22;14.25;;;10.93;;
6348;SDS011;3207;42.648;23.406;2023-06-22T13:16:49;13.52;;;10.60;;
6348;SDS011;3207;42.648;23.406;2023-06-22T13:19:18;12.20;;;10.52;;
6348;SDS011;3207;42.648;23.406;2023-06-22T13:21:45;12.98;;;11.02;;
6348;SDS011;3207;42.648;23.406;2023-06-22T13:24:15;12.38;;;11.10;;
6348;SDS011;3207;42.648;23.406;2023-06-22T13:26:42;13.77;;;11.02;;
6348;SDS011;3207;42.648;23.406;2023-06-22T13:29:09;18.88;;;11.10;;
6348;SDS011;3207;42.648;23.406;2023-06-22T13:31:37;17.35;;;11.25;;
6348;SDS011;3207;42.648;23.406;2023-06-22T13:34:03;19.25;;;11.55;;
6348;SDS011;3207;42.648;23.406;2023-06-22T13:36:30;16.05;;;11.70;;
6348;SDS011;3207;42.648;23.406;2023-06-22T13:38:57;15.60;;;11.15;;
6348;SDS011;3207;42.648;23.406;2023-06-22T13:41:29;14.82;;;10.55;;
6348;SDS011;3207;42.648;23.406;2023-06-22T13:43:56;17.02;;;11.52;;
6348;SDS011;3207;42.648;23.406;2023-06-22T13:46:22;18.30;;;11.55;;
6348;SDS011;3207;42.648;23.406;2023-06-22T13:48:49;12.25;;;10.95;;
6348;SDS011;3207;42.648;23.406;2023-06-22T13:51:16;19.52;;;11.13;;
6348;SDS011;3207;42.648;23.406;2023-06-22T13:53:43;11.90;;;10.43;;
6348;SDS011;3207;42.648;23.406;2023-06-22T13:56:10;12.63;;;10.20;;
6348;SDS011;3207;42.648;23.406;2023-06-22T13:58:38;13.20;;;11.80;;
6348;SDS011;3207;42.648;23.406;2023-06-22T14:01:05;16.38;;;10.63;;
6348;SDS011;3207;42.648;23.406;2023-06-22T14:03:32;16.10;;;10.35;;
6348;SDS011;3207;42.648;23.406;2023-06-22T14:05:58;19.20;;;11.27;;
6348;SDS011;3207;42.648;23.406;2023-06-22T14:08:25;15.60;;;10.20;;
6348;SDS011;3207;42.648;23.406;2023-06-22T14:10:52;23.77;;;12.15;;
6348;SDS011;3207;42.648;23.406;2023-06-22T14:13:19;20.75;;;11.07;;
6348;SDS011;3207;42.648;23.406;2023-06-22T14:15:48;13.30;;;10.65;;
6348;SDS011;3207;42.648;23.406;2023-06-22T14:18:17;19.23;;;11.25;;
6348;SDS011;3207;42.648;23.406;2023-06-22T14:20:43;14.10;;;11.48;;
6348;SDS011;3207;42.648;23.406;2023-06-22T14:23:11;16.45;;;11.23;;
6348;SDS011;3207;42.648;23.406;2023-06-22T14:25:39;16.17;;;11.45;;
6348;SDS011;3207;42.648;23.406;2023-06-22T14:28:06;14.60;;;10.38;;
6348;SDS011;3207;42.648;23.406;2023-06-22T14:30:33;21.65;;;11.95;;
6348;SDS011;3207;42.648;23.406;2023-06-22T14:33:01;11.95;;;10.80;;
6348;SDS011;3207;42.648;23.406;2023-06-22T14:35:28;20.42;;;10.93;;
6348;SDS011;3207;42.648;23.406;2023-06-22T14:37:55;18.70;;;12.82;;
6348;SDS011;3207;42.648;23.406;2023-06-22T14:40:22;15.90;;;11.35;;
6348;SDS011;3207;42.648;23.406;2023-06-22T14:42:49;14.15;;;11.27;;
6348;SDS011;3207;42.648;23.406;2023-06-22T14:45:16;18.35;;;12.60;;
6348;SDS011;3207;42.648;23.406;2023-06-22T14:47:43;21.67;;;11.68;;
6348;SDS011;3207;42.648;23.406;2023-06-22T14:50:11;18.17;;;11.18;;
6348;SDS011;3207;42.648;23.406;2023-06-22T14:52:37;22.45;;;12.48;;
6348;SDS011;3207;42.648;23.406;2023-06-22T14:55:05;15.50;;;12.50;;
6348;SDS011;3207;42.648;23.406;2023-06-22T14:57:32;15.85;;;12.30;;
6348;SDS011;3207;42.648;23.406;2023-06-22T14:59:59;17.27;;;11.93;;
6348;SDS011;3207;42.648;23.406;2023-06-22T15:02:27;13.00;;;11.55;;
6348;SDS011;3207;42.648;23.406;2023-06-22T15:04:54;13.38;;;11.38;;
6348;SDS011;3207;42.648;23.406;2023-06-22T15:07:22;21.50;;;13.05;;
6348;SDS011;3207;42.648;23.406;2023-06-22T15:09:49;16.92;;;11.50;;
6348;SDS011;3207;42.648;23.406;2023-06-22T15:12:16;16.20;;;11.40;;
6348;SDS011;3207;42.648;23.406;2023-06-22T15:14:43;15.68;;;12.38;;
6348;SDS011;3207;42.648;23.406;2023-06-22T15:17:10;27.50;;;12.63;;
6348;SDS011;3207;42.648;23.406;2023-06-22T15:19:39;15.23;;;12.73;;
6348;SDS011;3207;42.648;23.406;2023-06-22T15:22:06;21.90;;;12.80;;
6348;SDS011;3207;42.648;23.406;2023-06-22T15:24:35;16.17;;;11.98;;
6348;SDS011;3207;42.648;23.406;2023-06-22T15:27:02;15.68;;;11.95;;
6348;SDS011;3207;42.648;23.406;2023-06-22T15:29:28;15.15;;;11.95;;
6348;SDS011;3207;42.648;23.406;2023-06-22T15:31:59;17.30;;;11.75;;